Time;durP1;ratioP1;P1;durP2;ratioP2;P2;SDS_P1;SDS_P2;PMS_P1;PMS_P2;Temp;Humidity;BMP_temperature;BMP_pressure;BME280_temperature;BME280_humidity;BME280_pressure;Samples;Min_cycle;Max_cycle;Signal;HPM_P1;HPM_P2
2021/03/01 04:31:58;;;;;;;10.30;8.20;;;;;;;3.51;54.83;100259.31;7571435;23;20318;-78
2021/03/01 04:35:19;;;;;;;12.30;8.27;;;;;;;3.41;55.70;100279.69;6821449;28;20248;-76
2021/03/01 04:38:40;;;;;;;11.70;8.30;;;;;;;3.25;54.88;100261.44;6817267;29;20356;-78
2021/03/01 04:42:02;;;;;;;13.07;8.37;;;;;;;3.32;54.89;100273.28;6831657;29;20304;-76
2021/03/01 04:45:23;;;;;;;12.23;8.80;;;;;;;3.53;55.15;100284.91;6843136;28;20246;-77
2021/03/01 04:48:46;;;;;;;10.87;7.77;;;;;;;3.64;54.07;100284.88;6842861;29;20245;-77
2021/03/01 04:52:08;;;;;;;10.80;7.83;;;;;;;3.60;54.68;100278.09;6842031;28;20276;-77
2021/03/01 04:55:29;;;;;;;10.40;8.07;;;;;;;3.52;54.15;100259.22;6843174;28;20757;-76
2021/03/01 04:58:51;;;;;;;9.83;7.53;;;;;;;3.50;54.47;100261.16;6843336;29;20215;-76
2021/03/01 05:02:13;;;;;;;12.13;8.37;;;;;;;3.42;55.17;100284.91;6842040;29;20241;-77
2021/03/01 05:05:35;;;;;;;11.37;8.27;;;;;;;3.40;54.14;100296.66;6842352;29;20218;-77
2021/03/01 05:08:56;;;;;;;12.83;8.23;;;;;;;3.17;55.62;100276.34;6841806;29;20630;-75
2021/03/01 05:12:17;;;;;;;9.73;7.57;;;;;;;3.46;54.76;100273.03;6841845;28;20320;-76
2021/03/01 05:15:38;;;;;;;12.60;9.03;;;;;;;3.43;54.79;100291.09;6837391;28;20202;-78
2021/03/01 05:18:59;;;;;;;10.43;8.03;;;;;;;2.99;55.47;100288.47;6832185;28;20285;-77
2021/03/01 05:22:21;;;;;;;10.90;8.47;;;;;;;3.46;54.88;100294.38;6820204;29;20223;-76
2021/03/01 05:25:42;;;;;;;11.57;8.60;;;;;;;3.16;54.75;100275.53;6841410;28;20320;-77
2021/03/01 05:29:04;;;;;;;12.93;8.93;;;;;;;2.90;56.03;100270.56;6839651;28;20610;-76
2021/03/01 05:32:25;;;;;;;11.00;8.87;;;;;;;3.07;55.36;100278.91;6840095;29;20265;-76
2021/03/01 05:35:46;;;;;;;12.43;8.57;;;;;;;2.95;55.63;100274.56;6839171;29;20209;-78
2021/03/01 05:39:09;;;;;;;13.70;8.37;;;;;;;3.12;55.15;100279.38;6839665;29;20328;-76
2021/03/01 05:42:31;;;;;;;15.47;9.63;;;;;;;3.18;55.09;100278.91;6841047;29;20233;-77
2021/03/01 05:45:52;;;;;;;13.60;8.23;;;;;;;2.45;55.92;100251.06;6842250;28;20289;-76
2021/03/01 05:49:14;;;;;;;13.73;8.87;;;;;;;2.99;56.90;100273.34;6842202;28;20244;-77
2021/03/01 05:52:37;;;;;;;13.10;8.83;;;;;;;3.07;55.45;100281.56;6842735;29;20245;-77
2021/03/01 05:55:59;;;;;;;12.40;8.03;;;;;;;3.31;55.10;100249.44;6842666;28;20662;-77
2021/03/01 05:59:20;;;;;;;11.13;7.93;;;;;;;3.62;54.41;100284.16;6841739;29;20202;-76
2021/03/01 06:02:41;;;;;;;12.77;8.23;;;;;;;3.37;55.02;100294.28;6841670;29;20229;-76
2021/03/01 06:06:03;;;;;;;12.80;8.70;;;;;;;3.25;55.42;100298.75;6838857;28;20242;-77
2021/03/01 06:09:24;;;;;;;12.83;8.03;;;;;;;3.46;54.47;100293.50;6825096;29;20266;-78
2021/03/01 06:12:46;;;;;;;13.43;9.03;;;;;;;3.43;54.25;100307.94;6841569;28;20585;-78
2021/03/01 06:16:08;;;;;;;10.50;8.20;;;;;;;3.37;54.26;100295.09;6842727;28;20213;-77
2021/03/01 06:19:43;;;;;;;13.03;8.70;;;;;;;2.94;54.45;100307.50;6842332;28;20233;-77
2021/03/01 06:23:05;;;;;;;13.07;9.10;;;;;;;3.23;55.16;100318.50;6841928;28;20235;-78
2021/03/01 06:26:28;;;;;;;11.57;8.40;;;;;;;2.91;54.90;100307.75;6841800;28;20223;-77
2021/03/01 06:30:08;;;;;;;13.20;8.90;;;;;;;3.14;55.32;100319.25;6841336;28;20566;-78
2021/03/01 06:33:30;;;;;;;12.53;8.87;;;;;;;3.31;54.56;100316.91;6841050;28;20314;-77
2021/03/01 06:37:03;;;;;;;14.63;8.77;;;;;;;3.01;54.41;100314.03;6846697;28;20645;-79
2021/03/01 06:40:24;;;;;;;13.27;8.50;;;;;;;2.83;55.55;100307.47;6853178;28;20209;-78
2021/03/01 06:43:57;;;;;;;10.87;8.33;;;;;;;3.05;54.95;100311.97;6841882;28;20238;-79
2021/03/01 06:47:19;;;;;;;10.73;8.07;;;;;;;2.99;55.10;100315.13;6841495;28;20206;-78
2021/03/01 06:50:44;;;;;;;11.00;8.30;;;;;;;3.07;55.14;100318.88;6840901;29;20241;-77
2021/03/01 06:54:05;;;;;;;17.53;9.43;;;;;;;3.44;55.53;100309.66;6841108;29;20197;-77
2021/03/01 06:57:27;;;;;;;12.03;8.70;;;;;;;3.40;54.80;100305.53;6840615;28;20222;-78
2021/03/01 07:00:58;;;;;;;12.27;8.90;;;;;;;3.29;54.37;100318.00;6840137;28;20230;-78
2021/03/01 07:04:22;;;;;;;14.53;9.93;;;;;;;3.43;55.99;100325.75;6841290;28;20209;-77
2021/03/01 07:07:43;;;;;;;15.37;11.30;;;;;;;3.98;54.96;100312.28;6841400;28;20211;-77
2021/03/01 07:11:19;;;;;;;12.33;8.30;;;;;;;4.72;53.45;100326.31;6829836;29;20261;-78
2021/03/01 07:14:40;;;;;;;11.83;7.97;;;;;;;6.07;49.78;100332.06;6813644;29;20720;-77
2021/03/01 07:18:02;;;;;;;12.37;8.67;;;;;;;5.62;50.00;100330.81;6813368;29;20213;-78
2021/03/01 07:21:26;;;;;;;11.60;8.83;;;;;;;5.62;50.56;100341.50;6835303;29;20256;-77
2021/03/01 07:24:50;;;;;;;15.17;9.27;;;;;;;6.19;49.65;100309.53;6839354;29;20215;-78
2021/03/01 07:28:13;;;;;;;12.30;8.17;;;;;;;6.74;47.51;100320.31;6839385;28;20208;-79
2021/03/01 07:31:36;;;;;;;10.87;8.80;;;;;;;6.88;48.51;100316.31;6839113;28;20230;-78
2021/03/01 07:34:57;;;;;;;11.50;8.80;;;;;;;7.16;46.42;100329.66;6839103;29;20202;-77
2021/03/01 07:38:20;;;;;;;13.93;9.07;;;;;;;7.25;47.26;100318.03;6839048;29;20209;-78
2021/03/01 07:41:41;;;;;;;14.60;9.03;;;;;;;7.73;46.17;100326.69;6838164;29;20714;-78
2021/03/01 07:45:03;;;;;;;12.20;9.87;;;;;;;7.46;46.56;100307.91;6837866;29;20215;-78
2021/03/01 07:48:34;;;;;;;12.53;9.53;;;;;;;7.37;46.78;100303.44;6838602;29;20260;-79
2021/03/01 07:51:55;;;;;;;12.03;9.03;;;;;;;8.10;45.27;100311.34;6838443;29;20244;-79
2021/03/01 07:55:23;;;;;;;16.10;12.33;;;;;;;8.02;46.09;100313.09;6839552;28;20213;-79
2021/03/01 07:58:54;;;;;;;13.83;11.20;;;;;;;8.17;45.37;100300.81;6839419;28;20201;-77
2021/03/01 08:02:24;;;;;;;12.57;10.10;;;;;;;8.11;45.52;100293.34;6838512;29;20231;-79
2021/03/01 08:05:52;;;;;;;15.23;9.80;;;;;;;8.16;45.00;100289.22;6839014;28;20202;-78
2021/03/01 08:09:13;;;;;;;12.57;9.63;;;;;;;8.47;44.89;100312.03;6841931;28;20635;-79
2021/03/01 08:12:53;;;;;;;11.70;8.73;;;;;;;9.04;44.90;100317.66;6847670;28;20233;-79
2021/03/01 08:16:18;;;;;;;11.67;8.93;;;;;;;8.69;44.64;100321.44;6847066;29;20236;-80
2021/03/01 08:19:42;;;;;;;14.80;10.93;;;;;;;9.03;44.28;100277.50;6850817;28;20202;-79
2021/03/01 08:23:20;;;;;;;14.03;10.40;;;;;;;9.98;42.33;100273.47;6846748;28;20253;-79
2021/03/01 08:26:41;;;;;;;13.90;9.77;;;;;;;10.41;42.23;100290.25;6845229;28;20201;-79
2021/03/01 08:30:20;;;;;;;12.60;9.40;;;;;;;10.05;42.07;100274.53;6844574;28;20205;-78
2021/03/01 08:33:41;;;;;;;13.73;10.30;;;;;;;10.29;43.61;100293.41;6844877;28;20194;-80
2021/03/01 08:37:04;;;;;;;17.10;11.90;;;;;;;10.80;42.37;100268.81;6844872;28;20277;-77
2021/03/01 08:40:25;;;;;;;17.00;11.10;;;;;;;10.66;41.39;100261.38;6844221;28;20213;-79
2021/03/01 08:43:48;;;;;;;17.63;12.20;;;;;;;10.22;42.38;100270.84;6845204;28;20280;-78
2021/03/01 08:47:10;;;;;;;15.90;12.20;;;;;;;10.82;41.58;100264.06;6843702;29;20217;-78
2021/03/01 08:50:33;;;;;;;14.03;12.03;;;;;;;11.39;40.99;100295.31;6843716;29;20233;-79
2021/03/01 08:53:54;;;;;;;15.63;11.10;;;;;;;11.48;40.93;100291.53;6817261;29;20214;-80
2021/03/01 08:57:18;;;;;;;14.60;11.10;;;;;;;11.66;40.53;100271.41;6819926;29;20686;-78
2021/03/01 09:00:49;;;;;;;14.30;11.43;;;;;;;12.62;38.81;100278.03;6837418;29;20229;-78
2021/03/01 09:04:15;;;;;;;17.30;11.17;;;;;;;12.65;38.70;100264.13;6822550;28;20267;-78
2021/03/01 09:07:42;;;;;;;18.77;11.33;;;;;;;12.71;39.22;100277.78;6824263;29;20222;-78
2021/03/01 09:11:05;;;;;;;11.70;9.67;;;;;;;13.69;36.78;100269.22;6823186;29;20243;-79
2021/03/01 09:14:26;;;;;;;13.77;10.23;;;;;;;13.95;36.09;100247.88;6836698;28;20210;-78
2021/03/01 09:17:51;;;;;;;21.10;10.67;;;;;;;15.26;34.24;100248.00;6843698;28;20264;-79
2021/03/01 09:21:16;;;;;;;10.50;8.97;;;;;;;16.48;31.47;100256.03;6833892;28;20224;-79
2021/03/01 09:24:37;;;;;;;10.83;7.43;;;;;;;13.51;33.31;100228.13;6852014;28;20207;-78
2021/03/01 09:27:58;;;;;;;9.27;7.90;;;;;;;14.31;33.04;100254.13;6852586;28;20521;-79
2021/03/01 09:31:20;;;;;;;9.00;7.50;;;;;;;13.65;33.99;100259.81;6841233;28;20774;-79
2021/03/01 09:34:41;;;;;;;8.30;7.27;;;;;;;14.50;31.00;100236.31;6843290;28;20213;-78
2021/03/01 09:38:04;;;;;;;8.47;6.63;;;;;;;13.40;34.12;100258.41;6842335;28;20206;-80
2021/03/01 09:41:33;;;;;;;7.90;7.07;;;;;;;14.62;32.77;100242.94;6842206;28;20227;-79
2021/03/01 09:44:54;;;;;;;11.00;8.10;;;;;;;14.12;33.55;100249.31;6842436;29;20213;-79
2021/03/01 09:48:15;;;;;;;12.37;7.83;;;;;;;14.34;34.12;100242.88;6842700;29;20577;-78
2021/03/01 09:51:36;;;;;;;11.00;8.37;;;;;;;13.42;34.86;100231.16;6842018;28;20235;-80
2021/03/01 09:54:59;;;;;;;9.63;8.07;;;;;;;14.30;33.91;100241.59;6836346;28;20215;-78
2021/03/01 09:58:28;;;;;;;11.23;8.60;;;;;;;14.23;33.74;100216.25;6843158;28;20209;-78
2021/03/01 10:01:50;;;;;;;8.80;7.40;;;;;;;12.12;36.44;100237.16;6841461;28;20237;-79
2021/03/01 10:05:12;;;;;;;10.53;8.00;;;;;;;12.86;35.25;100199.31;6843426;28;20291;-79
2021/03/01 10:08:33;;;;;;;8.60;6.83;;;;;;;12.89;34.94;100212.44;6842080;28;20199;-80
2021/03/01 10:12:00;;;;;;;9.93;7.00;;;;;;;13.58;34.34;100217.41;6841896;28;20244;-79
2021/03/01 10:15:22;;;;;;;8.10;6.73;;;;;;;13.10;34.57;100201.75;6842864;28;20614;-80
2021/03/01 10:18:43;;;;;;;8.57;6.87;;;;;;;13.78;33.04;100215.75;6844043;28;20216;-77
2021/03/01 10:22:04;;;;;;;9.57;7.43;;;;;;;13.69;33.67;100216.91;6842691;28;20289;-80
2021/03/01 10:25:36;;;;;;;7.87;6.40;;;;;;;14.15;32.69;100204.69;6842556;28;20665;-78
2021/03/01 10:29:00;;;;;;;8.57;6.67;;;;;;;14.53;32.27;100203.38;6842453;28;20227;-78
2021/03/01 10:32:24;;;;;;;7.50;6.37;;;;;;;14.88;30.60;100202.41;6839464;28;20247;-78
2021/03/01 10:35:45;;;;;;;8.70;6.77;;;;;;;15.04;30.51;100204.81;6841642;28;20207;-77
2021/03/01 10:39:09;;;;;;;8.77;6.73;;;;;;;14.47;31.08;100199.59;6823997;28;20212;-78
2021/03/01 10:42:37;;;;;;;8.87;6.60;;;;;;;14.80;30.60;100206.09;6814541;29;20645;-79
2021/03/01 10:45:59;;;;;;;8.47;6.63;;;;;;;14.96;29.53;100210.38;6814925;29;20205;-78
2021/03/01 10:49:24;;;;;;;7.43;6.13;;;;;;;14.75;30.15;100200.41;6840817;29;20573;-79
2021/03/01 10:52:46;;;;;;;7.27;6.20;;;;;;;15.39;29.07;100174.69;6840507;28;20230;-78
2021/03/01 10:56:07;;;;;;;6.73;6.00;;;;;;;15.91;27.80;100179.47;6841088;28;20578;-79
2021/03/01 10:59:28;;;;;;;7.73;6.00;;;;;;;15.60;28.09;100177.31;6841157;28;20238;-78
2021/03/01 11:02:54;;;;;;;6.13;5.53;;;;;;;16.00;28.67;100181.81;6840283;29;20241;-79
2021/03/01 11:06:15;;;;;;;5.90;5.30;;;;;;;15.48;27.90;100184.38;6840145;28;20213;-78
2021/03/01 11:09:36;;;;;;;6.57;5.63;;;;;;;15.33;28.36;100174.69;6840673;28;20275;-78
2021/03/01 11:12:57;;;;;;;8.20;5.50;;;;;;;15.56;27.67;100176.03;6840910;28;20240;-77
2021/03/01 11:16:18;;;;;;;7.20;5.10;;;;;;;17.32;25.78;100160.56;6840791;28;20210;-79
2021/03/01 11:19:40;;;;;;;6.73;5.60;;;;;;;16.88;26.28;100154.19;6844103;28;20210;-81
2021/03/01 11:23:02;;;;;;;5.97;5.37;;;;;;;16.65;25.20;100143.75;6841764;28;20239;-82
2021/03/01 11:26:23;;;;;;;6.17;5.27;;;;;;;17.37;25.50;100144.38;6844675;28;20198;-81
2021/03/01 11:29:45;;;;;;;6.00;5.37;;;;;;;17.36;25.66;100147.31;6856124;28;20220;-83
2021/03/01 11:33:07;;;;;;;7.00;5.43;;;;;;;16.94;24.86;100132.38;6860100;28;20233;-84
2021/03/01 11:36:29;;;;;;;6.33;4.80;;;;;;;17.45;24.19;100133.25;6853564;28;20210;-83
2021/03/01 11:39:50;;;;;;;5.33;4.83;;;;;;;17.56;24.27;100135.31;6880561;28;20285;-83
2021/03/01 11:43:11;;;;;;;7.07;4.47;;;;;;;17.14;24.28;100135.88;6834374;28;20237;-83
2021/03/01 11:46:32;;;;;;;5.00;4.50;;;;;;;17.40;24.60;100121.34;6843641;28;20302;-82
2021/03/01 11:49:54;;;;;;;6.17;5.10;;;;;;;18.67;22.29;100113.50;6844425;28;20190;-83
2021/03/01 11:53:16;;;;;;;4.50;4.10;;;;;;;17.52;22.94;100109.50;6843184;28;20240;-78
2021/03/01 11:56:37;;;;;;;4.40;4.00;;;;;;;17.58;23.61;100107.81;6842108;29;20234;-79
2021/03/01 11:59:58;;;;;;;5.23;4.20;;;;;;;17.70;23.10;100100.59;6840107;28;20209;-79
2021/03/01 12:03:19;;;;;;;7.00;4.77;;;;;;;17.85;22.34;100084.75;6840450;28;20226;-80
2021/03/01 12:06:41;;;;;;;4.73;4.03;;;;;;;16.78;24.18;100066.59;6842767;28;20212;-79
2021/03/01 12:10:03;;;;;;;4.67;4.10;;;;;;;17.61;22.72;100097.31;6841546;29;20621;-79
2021/03/01 12:13:24;;;;;;;4.33;3.90;;;;;;;18.23;21.61;100064.50;6839786;28;20233;-79
2021/03/01 12:16:45;;;;;;;5.00;4.50;;;;;;;17.40;21.95;100037.63;6838180;28;20205;-79
2021/03/01 12:20:07;;;;;;;5.10;3.87;;;;;;;18.50;22.06;100043.25;6839160;28;20662;-79
2021/03/01 12:23:28;;;;;;;4.00;3.60;;;;;;;18.00;21.79;100053.38;6838639;28;20241;-80
2021/03/01 12:26:50;;;;;;;3.83;3.50;;;;;;;17.73;22.25;100053.78;6837320;29;20212;-79
2021/03/01 12:30:13;;;;;;;3.70;3.37;;;;;;;18.07;21.48;100048.69;6839151;28;20206;-79
2021/03/01 12:33:34;;;;;;;7.00;3.73;;;;;;;17.93;22.27;100059.94;6839287;28;20237;-79
2021/03/01 12:36:55;;;;;;;4.33;3.40;;;;;;;18.54;21.42;100030.81;6839610;28;20706;-80
2021/03/01 12:40:18;;;;;;;4.27;3.67;;;;;;;18.16;21.77;100052.81;6839165;29;20210;-81
2021/03/01 12:43:40;;;;;;;4.23;3.33;;;;;;;18.96;21.61;100044.44;6849852;28;20221;-79
2021/03/01 12:47:02;;;;;;;4.23;3.43;;;;;;;19.68;20.78;100046.19;6841391;29;20287;-80
2021/03/01 12:50:23;;;;;;;3.60;3.30;;;;;;;20.29;19.90;100035.75;6839612;29;20213;-81
2021/03/01 12:53:44;;;;;;;3.77;3.43;;;;;;;18.30;21.91;100040.72;6839372;28;20322;-80
2021/03/01 12:57:08;;;;;;;4.47;3.70;;;;;;;18.21;22.54;100036.59;6842259;28;20237;-80
2021/03/01 13:00:30;;;;;;;4.50;3.43;;;;;;;18.11;22.20;100036.25;6842985;28;20233;-81
2021/03/01 13:03:51;;;;;;;3.67;3.37;;;;;;;18.66;21.70;100034.47;6844619;28;20606;-79
2021/03/01 13:07:12;;;;;;;4.40;4.00;;;;;;;18.51;22.37;100023.91;6843182;28;20671;-80
2021/03/01 13:10:34;;;;;;;4.63;3.63;;;;;;;19.01;21.85;100021.84;6842824;29;20246;-79
2021/03/01 13:13:55;;;;;;;3.60;3.30;;;;;;;19.18;22.11;100018.28;6843720;29;20575;-79
2021/03/01 13:17:18;;;;;;;4.10;3.70;;;;;;;19.50;22.05;99997.00;6843935;28;20202;-80
2021/03/01 13:20:39;;;;;;;5.73;4.10;;;;;;;20.10;21.08;99995.84;6844524;28;20649;-80
2021/03/01 13:24:00;;;;;;;5.03;3.57;;;;;;;19.60;21.29;100014.53;6847012;29;20809;-79
2021/03/01 13:27:21;;;;;;;4.30;3.63;;;;;;;20.07;21.02;99999.03;6853172;28;20215;-79
2021/03/01 13:30:42;;;;;;;6.63;4.97;;;;;;;20.48;21.36;99998.91;6843733;28;20238;-80
2021/03/01 13:34:04;;;;;;;4.80;3.90;;;;;;;21.28;20.69;99994.09;6845548;28;20239;-80
2021/03/01 13:37:26;;;;;;;4.53;3.40;;;;;;;20.35;20.83;99993.69;6844879;28;20213;-82
2021/03/01 13:40:47;;;;;;;5.10;3.43;;;;;;;19.95;21.28;100004.50;6852898;28;20224;-79
2021/03/01 13:44:08;;;;;;;4.70;3.83;;;;;;;19.00;22.37;100001.06;6850994;29;20218;-80
2021/03/01 13:47:29;;;;;;;4.73;4.10;;;;;;;18.40;23.37;99989.16;6852433;29;20203;-82
2021/03/01 13:50:51;;;;;;;6.23;4.20;;;;;;;19.31;22.26;99968.91;6852115;28;20232;-82
2021/03/01 13:54:12;;;;;;;5.50;4.20;;;;;;;18.65;22.71;99972.72;6851838;28;20208;-82
2021/03/01 13:57:33;;;;;;;4.27;3.80;;;;;;;19.41;22.38;99991.03;6851428;29;20209;-81
2021/03/01 14:00:55;;;;;;;4.57;4.03;;;;;;;18.88;23.25;100000.97;6850984;28;20284;-81
2021/03/01 14:04:16;;;;;;;4.30;3.90;;;;;;;18.64;23.20;99990.97;6852195;28;20221;-81
2021/03/01 14:07:39;;;;;;;4.30;3.87;;;;;;;19.11;22.57;99997.56;6850523;28;20214;-82
2021/03/01 14:11:00;;;;;;;3.70;3.40;;;;;;;19.47;22.64;99998.31;6851264;28;20707;-81
2021/03/01 14:14:21;;;;;;;4.17;3.77;;;;;;;19.33;22.31;99999.56;6851201;28;20262;-81
2021/03/01 14:17:42;;;;;;;4.03;3.67;;;;;;;19.65;22.24;99986.47;6851444;29;20206;-82
2021/03/01 14:21:04;;;;;;;4.40;3.70;;;;;;;19.14;22.76;99986.13;6851986;28;20221;-82
2021/03/01 14:24:26;;;;;;;4.17;3.77;;;;;;;19.69;22.69;100001.34;6850746;28;20616;-82
2021/03/01 14:27:48;;;;;;;3.87;3.47;;;;;;;19.84;22.10;99949.72;6851550;28;20618;-81
2021/03/01 14:31:09;;;;;;;4.87;4.07;;;;;;;19.48;22.70;99993.66;6851170;28;20377;-80
2021/03/01 14:34:30;;;;;;;3.63;3.30;;;;;;;19.49;22.92;99962.50;6850599;29;20212;-81
2021/03/01 14:37:51;;;;;;;4.13;3.77;;;;;;;20.09;22.23;99983.19;6850447;28;20209;-82
2021/03/01 14:41:14;;;;;;;8.60;7.00;;;;;;;20.86;21.86;99977.28;6850107;28;20225;-82
2021/03/01 14:44:35;;;;;;;4.50;3.77;;;;;;;21.03;21.35;99926.94;6847503;28;20686;-81
2021/03/01 14:47:57;;;;;;;5.10;3.47;;;;;;;20.77;21.74;99966.69;6844197;28;20220;-82
2021/03/01 14:51:19;;;;;;;3.73;3.43;;;;;;;21.14;21.42;99970.75;6852965;28;20232;-82
2021/03/01 14:54:40;;;;;;;4.23;3.43;;;;;;;21.01;20.63;99959.28;6850462;29;20204;-82
2021/03/01 14:58:02;;;;;;;7.27;4.47;;;;;;;20.47;21.67;99931.50;6851118;28;20222;-80
2021/03/01 15:01:24;;;;;;;4.40;3.17;;;;;;;20.77;21.98;99936.53;6851843;28;20241;-80
2021/03/01 15:04:45;;;;;;;3.60;3.30;;;;;;;21.08;21.24;99954.47;6856176;28;20221;-82
2021/03/01 15:08:06;;;;;;;3.90;3.60;;;;;;;21.17;21.47;99917.31;6855716;29;20214;-82
2021/03/01 15:11:27;;;;;;;5.40;3.80;;;;;;;20.45;20.50;99953.66;6835544;29;20236;-82
2021/03/01 15:14:49;;;;;;;3.90;3.23;;;;;;;19.39;21.69;99960.34;6826022;29;20209;-80
2021/03/01 15:18:11;;;;;;;6.90;3.10;;;;;;;19.31;21.47;99959.84;6834594;29;20289;-80
2021/03/01 15:21:32;;;;;;;5.90;3.30;;;;;;;19.63;21.26;99955.78;6846427;28;20221;-80
2021/03/01 15:24:53;;;;;;;3.90;3.00;;;;;;;18.71;22.04;99956.25;6844987;29;20213;-80
2021/03/01 15:28:14;;;;;;;3.73;3.00;;;;;;;19.21;21.75;99929.50;6844099;29;20204;-81
2021/03/01 15:31:36;;;;;;;3.67;3.33;;;;;;;19.32;21.54;99935.00;6846837;28;20233;-81
2021/03/01 15:34:57;;;;;;;10.27;8.20;;;;;;;19.55;21.61;99942.41;6846742;28;20213;-80
2021/03/01 15:38:19;;;;;;;7.60;5.50;;;;;;;19.66;21.37;99945.19;6848085;28;20211;-79
2021/03/01 15:41:40;;;;;;;5.50;4.60;;;;;;;20.19;21.04;99943.22;6849806;28;20728;-80
2021/03/01 15:45:01;;;;;;;6.27;4.87;;;;;;;19.61;21.03;99920.44;6848004;28;20205;-81
2021/03/01 15:48:23;;;;;;;4.37;3.67;;;;;;;19.59;20.75;99944.47;6846992;28;20214;-80
2021/03/01 15:51:53;;;;;;;4.97;3.77;;;;;;;19.72;21.30;99957.09;6848081;28;20234;-80
2021/03/01 15:55:14;;;;;;;4.80;3.97;;;;;;;19.37;20.86;99950.69;6849155;28;20223;-79
2021/03/01 15:58:36;;;;;;;4.63;4.07;;;;;;;19.02;21.48;99957.91;6847689;28;20213;-80
2021/03/01 16:01:57;;;;;;;4.47;3.90;;;;;;;19.36;20.26;99949.88;6848249;28;20255;-81
2021/03/01 16:05:19;;;;;;;4.40;3.60;;;;;;;19.22;21.77;99966.72;6848795;28;20686;-81
2021/03/01 16:08:40;;;;;;;6.50;5.43;;;;;;;19.59;21.89;99960.03;6822224;29;20214;-79
2021/03/01 16:12:01;;;;;;;4.70;3.87;;;;;;;19.73;20.90;99951.38;6841657;29;20371;-79
2021/03/01 16:15:22;;;;;;;4.57;3.13;;;;;;;19.31;21.98;99971.63;6833152;28;20206;-79
2021/03/01 16:18:44;;;;;;;4.97;3.90;;;;;;;19.66;21.45;99960.75;6847332;28;20268;-80
2021/03/01 16:22:06;;;;;;;5.70;4.20;;;;;;;19.19;22.19;99943.38;6850090;29;20237;-80
2021/03/01 16:25:27;;;;;;;4.40;4.00;;;;;;;19.43;21.75;99975.22;6854051;28;20205;-80
2021/03/01 16:28:48;;;;;;;5.40;4.63;;;;;;;19.39;23.12;99978.69;6853768;29;20221;-80
2021/03/01 16:32:09;;;;;;;5.80;4.23;;;;;;;19.43;23.17;99966.19;6860610;28;20265;-82
2021/03/01 16:35:31;;;;;;;7.47;5.10;;;;;;;19.48;23.33;99967.16;6845561;29;20209;-79
2021/03/01 16:38:54;;;;;;;5.00;4.37;;;;;;;19.23;23.87;99987.53;6854224;29;20210;-82
2021/03/01 16:42:15;;;;;;;4.90;4.40;;;;;;;19.13;24.23;99995.41;6840668;29;20227;-79
2021/03/01 16:45:37;;;;;;;5.03;4.23;;;;;;;18.75;25.15;99995.69;6876443;28;20267;-82
2021/03/01 16:48:59;;;;;;;6.97;4.43;;;;;;;18.71;24.75;99999.97;6871418;28;20226;-82
2021/03/01 16:52:25;;;;;;;6.70;5.03;;;;;;;18.57;25.24;100001.16;6861585;28;20236;-81
2021/03/01 16:55:48;;;;;;;6.13;4.40;;;;;;;18.69;25.07;100006.72;6857737;28;20210;-81
2021/03/01 16:59:11;;;;;;;6.40;4.93;;;;;;;18.31;25.49;99996.00;6849187;28;20206;-81
2021/03/01 17:02:32;;;;;;;6.23;5.10;;;;;;;17.93;26.23;100014.38;6837447;28;20241;-81
2021/03/01 17:05:53;;;;;;;7.73;6.00;;;;;;;17.84;26.55;100021.19;6855694;28;20239;-80
2021/03/01 17:09:20;;;;;;;8.00;5.13;;;;;;;17.73;26.88;100007.41;6875301;28;20257;-80
2021/03/01 17:12:47;;;;;;;6.60;4.93;;;;;;;17.74;26.89;100011.81;6875628;28;20233;-82
2021/03/01 17:16:08;;;;;;;5.80;4.83;;;;;;;17.65;26.85;100024.91;6876454;28;20714;-80
2021/03/01 17:19:31;;;;;;;6.17;5.33;;;;;;;17.52;27.17;100018.69;6850804;28;20210;-81
2021/03/01 17:22:54;;;;;;;7.33;4.50;;;;;;;16.55;27.69;99993.56;6850587;29;20226;-79
2021/03/01 17:26:17;;;;;;;7.00;4.63;;;;;;;17.10;27.21;100019.34;6872666;28;20201;-79
2021/03/01 17:29:41;;;;;;;8.20;5.20;;;;;;;16.98;27.80;100023.81;6869364;28;20320;-81
2021/03/01 17:33:04;;;;;;;6.87;4.73;;;;;;;16.93;27.87;100021.69;6845692;28;20240;-81
2021/03/01 17:36:26;;;;;;;6.53;5.00;;;;;;;16.82;29.02;100033.25;6844160;29;20215;-80
2021/03/01 17:39:47;;;;;;;6.30;5.70;;;;;;;16.50;29.92;100034.22;6830021;28;20202;-81
2021/03/01 17:43:09;;;;;;;10.30;5.90;;;;;;;16.06;30.71;100039.50;6843900;28;20294;-81
2021/03/01 17:46:31;;;;;;;8.27;5.83;;;;;;;15.52;30.96;100005.38;6870392;28;20229;-80
2021/03/01 17:49:53;;;;;;;6.60;6.00;;;;;;;15.67;31.77;100055.81;6857615;28;20198;-82
2021/03/01 17:53:25;;;;;;;8.13;5.73;;;;;;;15.31;32.89;100052.56;6843635;28;20289;-80
2021/03/01 17:56:51;;;;;;;7.63;5.87;;;;;;;14.88;33.51;100044.88;6844435;28;20638;-80
2021/03/01 18:00:13;;;;;;;8.40;6.50;;;;;;;14.32;34.36;100038.75;6843674;28;20241;-80
2021/03/01 18:03:38;;;;;;;8.90;6.60;;;;;;;14.35;34.75;100068.19;6844607;28;20239;-79
2021/03/01 18:06:59;;;;;;;7.97;6.03;;;;;;;14.21;34.90;100047.41;6844763;28;20604;-81
2021/03/01 18:10:22;;;;;;;9.90;6.80;;;;;;;13.79;36.09;100068.31;6843297;28;20209;-78
2021/03/01 18:13:45;;;;;;;7.50;6.13;;;;;;;13.98;35.54;100064.97;6843606;28;20595;-81
2021/03/01 18:17:08;;;;;;;8.37;5.80;;;;;;;13.01;37.50;100064.78;6839532;28;20233;-79
2021/03/01 18:20:30;;;;;;;8.30;6.30;;;;;;;12.84;37.88;100066.84;6848653;29;20260;-79
2021/03/01 18:23:52;;;;;;;7.50;6.40;;;;;;;12.85;37.79;100052.28;6848742;28;20226;-79
2021/03/01 18:27:15;;;;;;;9.80;6.70;;;;;;;13.04;37.66;100067.94;6818490;29;20219;-79
2021/03/01 18:30:36;;;;;;;16.00;7.13;;;;;;;12.68;38.69;100069.75;6830767;28;20245;-79
2021/03/01 18:34:01;;;;;;;10.63;7.60;;;;;;;12.85;38.10;100065.81;6840114;29;20449;-79
2021/03/01 18:37:28;;;;;;;9.47;7.33;;;;;;;12.76;38.31;100072.34;6841507;28;20213;-79
2021/03/01 18:40:52;;;;;;;11.97;6.60;;;;;;;11.96;39.92;100075.09;6841949;29;20271;-79
2021/03/01 18:44:14;;;;;;;9.03;6.37;;;;;;;11.43;41.42;100078.72;6841991;29;20219;-80
2021/03/01 18:47:40;;;;;;;10.97;8.83;;;;;;;11.82;40.76;100084.00;6865771;28;20209;-78
2021/03/01 18:51:02;;;;;;;8.53;7.53;;;;;;;11.92;40.67;100087.31;6867586;28;20717;-78
2021/03/01 18:54:24;;;;;;;9.73;7.27;;;;;;;11.93;40.47;100086.28;6850721;28;20212;-80
2021/03/01 18:57:46;;;;;;;10.03;7.77;;;;;;;11.73;41.16;100083.25;6846317;29;20214;-79
2021/03/01 19:01:07;;;;;;;9.87;7.67;;;;;;;11.99;40.22;100093.66;6837904;28;20901;-78
2021/03/01 19:04:28;;;;;;;13.67;9.07;;;;;;;11.86;40.45;100082.63;6844684;28;20206;-79
2021/03/01 19:07:50;;;;;;;14.23;10.40;;;;;;;11.82;40.61;100090.28;6838286;29;20205;-80
2021/03/01 19:11:12;;;;;;;14.23;10.40;;;;;;;11.68;41.14;100087.53;6836594;29;20229;-78
2021/03/01 19:14:33;;;;;;;15.23;11.27;;;;;;;11.30;41.51;100062.28;6837566;28;20209;-78
2021/03/01 19:17:54;;;;;;;11.97;9.40;;;;;;;11.36;41.48;100066.09;6842246;28;20206;-79
2021/03/01 19:21:15;;;;;;;20.10;15.03;;;;;;;10.95;42.71;100089.81;6835489;29;20276;-78
2021/03/01 19:24:36;;;;;;;16.73;12.80;;;;;;;11.28;41.51;100071.56;6838242;28;20202;-79
2021/03/01 19:27:59;;;;;;;15.27;12.60;;;;;;;11.63;40.69;100076.41;6836824;29;20220;-80
2021/03/01 19:31:20;;;;;;;13.23;10.80;;;;;;;11.50;41.16;100086.94;6838108;28;20255;-82
2021/03/01 19:34:41;;;;;;;11.10;8.90;;;;;;;11.58;41.06;100095.00;6834956;28;20206;-79
2021/03/01 19:38:03;;;;;;;9.83;8.23;;;;;;;11.26;41.59;100079.00;6851762;28;20209;-80
2021/03/01 19:41:24;;;;;;;11.37;8.07;;;;;;;11.23;41.89;100096.38;6839104;29;20324;-78
2021/03/01 19:44:46;;;;;;;10.37;7.93;;;;;;;11.16;41.55;100102.69;6845929;28;20215;-78
2021/03/01 19:48:08;;;;;;;13.70;7.90;;;;;;;11.00;42.42;100092.84;6839032;28;20678;-79
2021/03/01 19:51:29;;;;;;;9.03;7.00;;;;;;;11.13;42.09;100076.03;6834973;28;20242;-79
2021/03/01 19:54:50;;;;;;;9.27;7.40;;;;;;;11.08;42.15;100100.88;6835296;28;20206;-79
2021/03/01 19:58:13;;;;;;;8.73;6.83;;;;;;;10.46;43.22;100085.63;6843614;28;20213;-79
2021/03/01 20:01:35;;;;;;;12.23;7.23;;;;;;;10.52;43.24;100059.81;6831889;28;20593;-80
2021/03/01 20:04:56;;;;;;;11.10;7.50;;;;;;;10.80;43.14;100096.97;6852444;28;20201;-79
2021/03/01 20:08:17;;;;;;;10.33;7.07;;;;;;;10.33;43.91;100092.59;6847618;28;20209;-79
2021/03/01 20:11:39;;;;;;;10.80;7.43;;;;;;;10.65;43.17;100085.22;6838677;28;20372;-78